Time;durP1;ratioP1;P1;durP2;ratioP2;P2;SDS_P1;SDS_P2;PMS_P1;PMS_P2;Temp;Humidity;BMP_temperature;BMP_pressure;BME280_temperature;BME280_humidity;BME280_pressure;Samples;Min_cycle;Max_cycle;Signal;HPM_P1;HPM_P2
2021/08/24 00:01:16;;;;;;;5.30;2.50;;;;;;;18.58;54.11;100923.50;6039725;23;20217;-83
2021/08/24 00:03:44;;;;;;;4.88;2.45;;;;;;;18.56;53.93;100918.25;6039675;23;20027;-83
2021/08/24 00:06:33;;;;;;;3.78;2.03;;;;;;;18.50;54.77;100924.03;6039917;23;20543;-83
2021/08/24 00:08:59;;;;;;;2.50;1.85;;;;;;;18.53;53.97;100923.81;6039588;23;20030;-83
2021/08/24 00:11:26;;;;;;;5.13;2.40;;;;;;;18.52;53.86;100921.25;6039483;23;20031;-83
2021/08/24 00:13:53;;;;;;;6.60;2.13;;;;;;;18.50;54.33;100921.34;6039898;23;20406;-83
2021/08/24 00:16:20;;;;;;;2.70;2.13;;;;;;;18.48;54.87;100926.81;6039736;23;20019;-83
2021/08/24 00:19:26;;;;;;;3.58;2.25;;;;;;;18.44;54.88;100922.69;6039535;23;20027;-83
2021/08/24 00:21:53;;;;;;;2.65;1.75;;;;;;;18.48;54.21;100926.81;6038794;23;20027;-83
2021/08/24 00:24:20;;;;;;;2.92;2.40;;;;;;;18.46;54.47;100925.22;6039604;23;20098;-83
2021/08/24 00:27:12;;;;;;;2.97;2.35;;;;;;;18.38;55.47;100923.09;6039249;23;20031;-82
2021/08/24 00:29:38;;;;;;;3.58;2.40;;;;;;;18.42;54.99;100923.72;6039785;23;20023;-82
2021/08/24 00:35:39;;;;;;;5.93;2.40;;;;;;;18.35;55.65;100916.19;6069745;23;20023;-83
2021/08/24 00:38:11;;;;;;;3.50;2.10;;;;;;;18.32;56.09;100919.06;6044311;23;20027;-83
2021/08/24 00:44:04;;;;;;;;;;;;;;;18.30;53.79;100905.00;6070153;23;20354;-82
2021/08/24 00:46:44;;;;;;;3.50;2.35;;;;;;;18.28;55.26;100912.22;6044109;23;19917;-83
2021/08/24 00:49:41;;;;;;;6.03;2.45;;;;;;;18.23;55.62;100919.72;6044133;23;20029;-82
2021/08/24 00:52:12;;;;;;;10.30;2.50;;;;;;;18.23;55.09;100920.56;6069565;23;20025;-83
2021/08/24 00:54:41;;;;;;;4.38;2.22;;;;;;;18.22;55.13;100934.00;6044107;23;20036;-82
2021/08/24 01:00:34;;;;;;;2.85;2.13;;;;;;;18.16;55.04;100931.78;6069238;23;20110;-83
2021/08/24 01:03:14;;;;;;;8.63;2.42;;;;;;;18.08;55.84;100932.31;6044364;23;20027;-83
2021/08/24 01:05:43;;;;;;;2.45;2.00;;;;;;;18.06;55.47;100931.53;6044347;23;20446;-83
2021/08/24 01:08:28;;;;;;;4.70;2.90;;;;;;;18.00;55.84;100930.16;6043829;23;20102;-82
2021/08/24 01:14:33;;;;;;;5.35;2.35;;;;;;;17.94;56.26;100935.91;6046014;23;20097;-83
2021/08/24 01:23:47;;;;;;;5.95;2.40;;;;;;;17.84;56.09;100935.69;6069118;23;20022;-83
2021/08/24 01:26:39;;;;;;;4.10;2.80;;;;;;;17.79;56.64;100936.00;6043823;23;20097;-83
2021/08/24 01:32:47;;;;;;;4.38;2.35;;;;;;;17.71;56.39;100931.22;6068940;23;20018;-82
2021/08/24 01:42:17;;;;;;;3.63;2.22;;;;;;;17.60;56.43;100924.91;6069261;23;20118;-82
2021/08/24 01:48:32;;;;;;;4.07;2.45;;;;;;;17.51;57.29;100929.03;6069155;23;20448;-82
2021/08/24 01:51:05;;;;;;;5.50;2.80;;;;;;;17.51;57.31;100937.91;6043594;23;20058;-82
2021/08/24 01:57:19;;;;;;;2.92;2.10;;;;;;;17.50;56.96;100930.88;6033348;23;20019;-82
2021/08/24 01:59:53;;;;;;;3.65;2.33;;;;;;;17.48;57.29;100927.44;6043933;23;20068;-82
2021/08/24 02:02:30;;;;;;;6.22;2.40;;;;;;;17.48;57.91;100934.56;6040517;23;20459;-82
2021/08/24 02:08:30;;;;;;;3.55;2.60;;;;;;;17.52;57.92;100926.28;6068949;23;20078;-82
2021/08/24 02:14:21;;;;;;;5.40;3.05;;;;;;;17.58;57.46;100933.84;6068486;23;20078;-82
2021/08/24 02:16:50;;;;;;;4.85;3.40;;;;;;;17.60;57.74;100930.25;6043758;23;20388;-82
2021/08/24 02:22:41;;;;;;;5.03;2.85;;;;;;;17.62;58.70;100930.97;6068915;23;20427;-83
2021/08/24 02:25:19;;;;;;;4.10;3.17;;;;;;;17.60;58.49;100935.56;6043138;23;20026;-83
2021/08/24 02:28:24;;;;;;;5.32;2.97;;;;;;;17.58;58.15;100939.16;6043580;23;20026;-83
2021/08/24 02:40:59;;;;;;;3.55;2.92;;;;;;;17.53;57.49;100929.81;6068220;23;20102;-82
2021/08/24 02:44:10;;;;;;;7.05;3.47;;;;;;;17.50;57.84;100946.84;5929473;24;20024;-82
2021/08/24 02:50:24;;;;;;;4.93;3.00;;;;;;;17.52;57.26;100941.38;5955034;24;20045;-83
2021/08/24 02:56:18;;;;;;;3.70;2.97;;;;;;;17.49;57.51;100942.47;5954840;24;20029;-82
2021/08/24 02:58:45;;;;;;;4.07;3.25;;;;;;;17.48;58.12;100939.88;5931926;24;20031;-82
2021/08/24 03:01:54;;;;;;;6.30;3.50;;;;;;;17.41;58.84;100940.31;5970123;23;20102;-82
2021/08/24 03:04:21;;;;;;;2.90;2.58;;;;;;;17.47;57.98;100944.38;6045470;23;20019;-82
2021/08/24 03:06:54;;;;;;;6.47;3.35;;;;;;;17.45;58.25;100943.63;6044842;23;20029;-82
2021/08/24 03:09:37;;;;;;;4.32;3.20;;;;;;;17.40;58.68;100951.94;6045505;23;20510;-82
2021/08/24 03:12:13;;;;;;;;;;;;;;;17.43;57.24;100951.69;6045897;23;20400;-82
2021/08/24 03:14:50;;;;;;;4.55;3.05;;;;;;;17.43;58.12;100954.34;6044871;23;20001;-82
2021/08/24 03:17:43;;;;;;;5.53;3.55;;;;;;;17.37;58.41;100952.13;5982621;24;20464;-82
2021/08/24 03:20:12;;;;;;;6.25;3.70;;;;;;;17.37;58.21;100949.47;5982600;24;20031;-82
2021/08/24 03:22:40;;;;;;;6.00;3.17;;;;;;;17.36;57.83;100945.09;5959460;24;20028;-82
2021/08/24 03:28:48;;;;;;;3.97;3.22;;;;;;;17.31;57.90;100950.72;5982351;23;20023;-83
2021/08/24 03:31:16;;;;;;;7.07;3.83;;;;;;;17.26;58.51;100955.50;5982424;24;20111;-83
2021/08/24 03:34:20;;;;;;;5.35;3.60;;;;;;;17.20;59.13;100950.59;5952307;24;20104;-83
2021/08/24 03:36:46;;;;;;;5.25;3.70;;;;;;;17.23;58.25;100952.19;6016690;23;20027;-83
2021/08/24 03:39:13;;;;;;;4.25;3.55;;;;;;;17.18;58.41;100950.69;6016766;23;20499;-82
2021/08/24 03:45:06;;;;;;;6.43;4.05;;;;;;;17.15;58.71;100960.66;6041044;23;20107;-82
2021/08/24 03:48:18;;;;;;;7.03;4.18;;;;;;;17.05;58.74;100958.59;6016190;23;20024;-83
2021/08/24 03:50:44;;;;;;;5.82;4.55;;;;;;;17.09;58.64;100963.75;6016175;23;20029;-82
2021/08/24 03:53:12;;;;;;;5.88;4.47;;;;;;;17.06;58.98;100956.81;6016628;23;20035;-83
2021/08/24 03:56:07;;;;;;;7.00;3.95;;;;;;;17.00;60.01;100970.47;6016357;23;20350;-82
2021/08/24 03:58:35;;;;;;;6.38;4.90;;;;;;;17.04;59.10;100962.22;6016292;23;20029;-83
2021/08/24 04:01:02;;;;;;;5.53;4.30;;;;;;;17.03;59.36;100962.28;6016284;23;20029;-83
2021/08/24 04:03:48;;;;;;;8.57;4.20;;;;;;;16.97;59.53;100962.72;6016645;23;20095;-83
2021/08/24 04:06:15;;;;;;;6.38;4.22;;;;;;;17.01;58.86;100966.88;6016186;23;20026;-79
2021/08/24 04:08:46;;;;;;;6.90;4.60;;;;;;;16.96;59.80;100971.66;6015983;23;20106;-80
2021/08/24 04:11:13;;;;;;;6.65;4.95;;;;;;;16.96;59.14;100967.16;6015949;23;20030;-80
2021/08/24 04:13:40;;;;;;;6.30;4.97;;;;;;;16.92;59.24;100971.84;6015947;23;20024;-80
2021/08/24 04:16:41;;;;;;;6.35;5.18;;;;;;;16.87;60.37;100975.75;6040886;23;20027;-80
2021/08/24 04:19:10;;;;;;;7.50;5.63;;;;;;;16.89;59.89;100982.66;6015993;23;20026;-80
2021/08/24 04:21:39;;;;;;;9.40;5.03;;;;;;;16.87;59.73;100992.56;6016062;23;20030;-80
2021/08/24 04:24:24;;;;;;;8.13;5.13;;;;;;;16.80;60.58;100984.13;6041272;23;20032;-79
2021/08/24 04:26:51;;;;;;;7.00;4.15;;;;;;;16.84;59.64;100989.22;6016124;23;20023;-80
2021/08/24 04:29:17;;;;;;;9.23;5.28;;;;;;;16.82;60.15;100993.78;6015882;23;20102;-80
2021/08/24 04:32:05;;;;;;;6.95;5.00;;;;;;;16.76;61.01;100993.25;6016254;23;20350;-80
2021/08/24 04:34:42;;;;;;;9.45;6.47;;;;;;;16.76;61.28;100995.03;6015471;23;20022;-80
2021/08/24 04:37:09;;;;;;;8.07;5.70;;;;;;;16.80;60.40;100994.75;6015833;23;20026;-79
2021/08/24 04:39:35;;;;;;;9.27;5.88;;;;;;;16.81;60.51;101000.91;6016276;23;20090;-80
2021/08/24 04:42:16;;;;;;;9.50;6.25;;;;;;;16.77;61.14;101000.25;6016087;23;20506;-79
2021/08/24 04:44:43;;;;;;;9.25;5.60;;;;;;;16.82;60.58;101002.59;6015896;23;20094;-80
2021/08/24 04:47:10;;;;;;;7.70;5.63;;;;;;;16.83;60.49;101001.69;6016215;23;20482;-80
2021/08/24 04:49:37;;;;;;;7.18;5.72;;;;;;;16.83;60.65;101009.66;6015780;23;20028;-80
2021/08/24 04:52:04;;;;;;;9.00;6.25;;;;;;;16.83;60.82;101003.47;6016152;23;20098;-80
2021/08/24 04:55:19;;;;;;;9.60;5.43;;;;;;;16.79;61.57;101005.47;6040460;23;20107;-80
2021/08/24 04:57:46;;;;;;;8.50;5.10;;;;;;;16.85;60.67;101002.41;6016035;23;20030;-80
2021/08/24 05:00:13;;;;;;;7.60;6.22;;;;;;;16.87;60.94;100999.66;6015548;23;20177;-80
2021/08/24 05:02:41;;;;;;;8.10;5.20;;;;;;;16.87;60.95;101005.00;6015489;23;20026;-80
2021/08/24 05:05:09;;;;;;;7.65;6.00;;;;;;;16.87;61.04;101005.84;6015982;23;20031;-80
2021/08/24 05:08:13;;;;;;;10.88;6.75;;;;;;;16.84;61.95;101008.69;6015524;23;20023;-80
2021/08/24 05:10:40;;;;;;;9.30;5.68;;;;;;;16.90;60.86;101005.63;6015444;23;20024;-80
2021/08/24 05:13:07;;;;;;;8.02;6.05;;;;;;;16.91;61.11;101006.50;6015570;23;20027;-80
2021/08/24 05:15:57;;;;;;;8.70;6.53;;;;;;;16.87;61.89;101007.66;6015306;23;20023;-80
2021/08/24 05:18:24;;;;;;;7.90;5.97;;;;;;;16.92;61.09;101008.19;6015871;23;20027;-80
2021/08/24 05:21:13;;;;;;;8.98;6.35;;;;;;;16.90;62.07;101010.97;6016119;23;20031;-80
2021/08/24 05:23:41;;;;;;;8.57;6.13;;;;;;;16.93;61.37;101016.09;6015412;23;20031;-80
2021/08/24 05:26:17;;;;;;;9.10;6.30;;;;;;;16.93;62.37;101020.53;6015474;23;20030;-80
2021/08/24 05:28:53;;;;;;;11.80;7.32;;;;;;;16.94;62.33;101019.63;5903332;24;20096;-80
2021/08/24 05:31:20;;;;;;;8.70;6.90;;;;;;;16.99;61.52;101019.31;5925851;24;20028;-80
2021/08/24 05:33:53;;;;;;;10.70;7.97;;;;;;;16.98;62.44;101022.91;5910520;24;20029;-80
2021/08/24 05:36:19;;;;;;;9.85;7.75;;;;;;;17.01;61.56;101028.88;5930563;24;20028;-80
2021/08/24 05:38:46;;;;;;;12.00;7.55;;;;;;;17.02;61.51;101027.09;5953820;24;20029;-80
2021/08/24 05:41:13;;;;;;;11.85;8.23;;;;;;;17.02;61.75;101022.63;5930818;24;20107;-80
2021/08/24 05:43:40;;;;;;;7.45;6.35;;;;;;;17.03;61.42;101024.34;5930511;24;20021;-80
2021/08/24 05:46:27;;;;;;;7.85;6.28;;;;;;;16.99;61.97;101028.16;5951303;23;20055;-80
2021/08/24 05:48:53;;;;;;;9.30;6.40;;;;;;;17.05;61.39;101030.44;6043533;23;20097;-80
2021/08/24 05:51:39;;;;;;;8.65;6.55;;;;;;;17.01;62.19;101031.53;6043498;23;20447;-80
2021/08/24 05:54:26;;;;;;;10.20;7.38;;;;;;;17.02;62.39;101037.72;6043498;23;20097;-80
2021/08/24 05:56:53;;;;;;;7.53;6.57;;;;;;;17.09;61.68;101032.91;6043642;23;20019;-80
2021/08/24 05:59:20;;;;;;;9.02;6.38;;;;;;;17.11;61.95;101038.97;6043380;23;20030;-80
2021/08/24 06:02:23;;;;;;;12.00;6.10;;;;;;;17.08;62.66;101033.88;6043795;23;20612;-80
2021/08/24 06:04:50;;;;;;;7.97;5.82;;;;;;;17.14;61.88;101041.44;6043420;23;20100;-80
2021/08/24 06:07:16;;;;;;;12.50;7.03;;;;;;;17.14;62.07;101039.66;6043483;23;20022;-80
2021/08/24 06:10:06;;;;;;;8.93;6.72;;;;;;;17.14;62.92;101046.75;6043804;23;20027;-80
2021/08/24 06:12:33;;;;;;;10.32;6.53;;;;;;;17.20;62.18;101043.72;6043459;23;20074;-80
2021/08/24 06:15:00;;;;;;;7.82;7.00;;;;;;;17.23;62.17;101043.50;6043256;23;20037;-80
2021/08/24 06:17:51;;;;;;;8.55;6.97;;;;;;;17.21;62.48;101044.56;6043878;23;20089;-80
2021/08/24 06:20:19;;;;;;;10.95;7.57;;;;;;;17.28;62.25;101048.53;6043251;23;20014;-80
2021/08/24 06:22:45;;;;;;;9.27;6.90;;;;;;;17.31;61.91;101051.00;6043851;23;20023;-80
2021/08/24 06:25:24;;;;;;;11.27;6.80;;;;;;;17.29;62.74;101059.09;6043233;23;20101;-80
2021/08/24 06:27:51;;;;;;;12.35;7.60;;;;;;;17.35;61.82;101055.19;6043258;23;20038;-80
2021/08/24 06:30:19;;;;;;;8.10;6.57;;;;;;;17.37;62.08;101047.06;6068867;23;20026;-80
2021/08/24 06:33:08;;;;;;;8.95;6.47;;;;;;;17.37;62.53;101049.72;6043457;23;20031;-80
2021/08/24 06:35:53;;;;;;;8.95;6.35;;;;;;;17.39;62.42;101047.84;6068137;23;20019;-80
2021/08/24 06:38:20;;;;;;;8.05;5.95;;;;;;;17.47;61.95;101050.00;6068752;23;20346;-80
2021/08/24 06:40:46;;;;;;;9.80;6.32;;;;;;;17.49;61.98;101051.59;6043961;23;20150;-80
2021/08/24 06:43:37;;;;;;;8.38;5.95;;;;;;;17.48;61.90;101060.53;6068873;23;20493;-80
2021/08/24 06:46:05;;;;;;;8.05;5.63;;;;;;;17.54;61.46;101049.47;6043160;23;20018;-80
2021/08/24 06:48:32;;;;;;;6.82;5.07;;;;;;;17.57;61.63;101056.44;6043528;23;20342;-80
2021/08/24 06:50:59;;;;;;;8.63;5.63;;;;;;;17.60;61.79;101055.38;6043685;23;20461;-80
2021/08/24 06:53:26;;;;;;;7.50;5.38;;;;;;;17.62;61.45;101051.66;6043362;23;20023;-80
2021/08/24 06:55:56;;;;;;;7.03;5.38;;;;;;;17.64;61.65;101054.22;6043549;23;20022;-80
2021/08/24 06:58:22;;;;;;;6.00;5.00;;;;;;;17.70;61.21;101057.34;6043192;23;20098;-80
2021/08/24 07:00:49;;;;;;;6.85;5.20;;;;;;;17.74;61.39;101055.31;6043628;23;20117;-80
2021/08/24 07:03:34;;;;;;;7.57;5.00;;;;;;;17.75;61.39;101059.66;6043354;23;20027;-80
2021/08/24 07:06:00;;;;;;;5.90;4.75;;;;;;;17.82;60.78;101052.97;6042863;23;20103;-80
2021/08/24 07:08:56;;;;;;;7.57;5.30;;;;;;;17.81;60.74;101053.94;6043350;23;20023;-80
2021/08/24 07:11:26;;;;;;;7.18;5.45;;;;;;;17.88;60.76;101059.72;6043541;23;20102;-80
2021/08/24 07:13:55;;;;;;;8.20;5.00;;;;;;;17.91;60.40;101064.81;6042901;23;20023;-80
2021/08/24 07:17:09;;;;;;;7.43;4.68;;;;;;;17.92;60.38;101065.69;6043776;23;20029;-80
2021/08/24 07:19:37;;;;;;;7.07;4.82;;;;;;;18.00;60.15;101060.69;6068656;23;20454;-80
2021/08/24 07:22:04;;;;;;;5.15;4.55;;;;;;;18.04;60.16;101064.84;6043441;23;20029;-80
2021/08/24 07:24:42;;;;;;;6.10;4.40;;;;;;;18.02;60.05;101061.44;6043287;23;20022;-80
2021/08/24 07:27:09;;;;;;;5.38;4.45;;;;;;;18.10;59.99;101063.63;6043021;23;20023;-80
2021/08/24 07:30:04;;;;;;;6.20;4.45;;;;;;;18.08;60.00;101058.41;6042814;23;20074;-80
2021/08/24 07:32:31;;;;;;;5.28;3.92;;;;;;;18.18;59.68;101065.75;6044973;23;20106;-80
2021/08/24 07:34:58;;;;;;;5.88;4.32;;;;;;;18.21;59.53;101070.88;6040951;23;20026;-80
2021/08/24 07:37:45;;;;;;;8.00;3.97;;;;;;;18.20;59.75;101075.34;6044775;23;20031;-80
2021/08/24 07:40:13;;;;;;;6.53;3.88;;;;;;;18.29;59.08;101073.88;6045078;23;20023;-80
2021/08/24 07:42:40;;;;;;;6.95;4.30;;;;;;;18.33;59.31;101079.84;6045183;23;20401;-80
2021/08/24 07:45:31;;;;;;;7.55;5.10;;;;;;;18.32;59.80;101080.81;6045022;23;20351;-80
2021/08/24 07:47:57;;;;;;;4.30;3.45;;;;;;;18.41;59.50;101074.84;6069592;23;20033;-80
2021/08/24 07:50:42;;;;;;;4.75;3.38;;;;;;;18.41;59.31;101073.97;6045070;23;20342;-80
2021/08/24 07:53:09;;;;;;;7.60;3.80;;;;;;;18.53;59.28;101072.25;6044694;23;20022;-80
2021/08/24 07:55:36;;;;;;;8.18;3.88;;;;;;;18.57;59.15;101071.94;6044452;23;20029;-80
2021/08/24 07:58:23;;;;;;;4.70;3.42;;;;;;;18.57;58.96;101074.63;6044577;23;20101;-80
2021/08/24 08:00:50;;;;;;;4.07;3.40;;;;;;;18.67;58.72;101082.84;6044572;23;20023;-80
2021/08/24 08:03:20;;;;;;;7.30;3.40;;;;;;;18.71;58.66;101072.78;6044551;23;20070;-80
2021/08/24 08:06:09;;;;;;;5.60;3.53;;;;;;;18.73;58.81;101076.22;6044606;23;20102;-80
2021/08/24 08:08:35;;;;;;;7.28;3.47;;;;;;;18.84;58.53;101078.97;6044893;23;20481;-80
2021/08/24 08:11:10;;;;;;;4.18;3.30;;;;;;;18.88;58.16;101090.28;6044944;23;20494;-80
2021/08/24 08:13:37;;;;;;;5.70;3.50;;;;;;;18.96;57.92;101087.94;6044876;23;20026;-80
2021/08/24 08:16:04;;;;;;;5.50;3.20;;;;;;;19.02;58.06;101091.94;6044357;23;20027;-80
2021/08/24 08:18:31;;;;;;;5.72;2.97;;;;;;;19.08;57.98;101082.69;6069761;23;20102;-80
2021/08/24 08:20:58;;;;;;;4.38;2.85;;;;;;;19.14;58.07;101077.75;6044876;23;20470;-80
2021/08/24 08:26:38;;;;;;;3.75;2.50;;;;;;;19.32;58.80;101089.91;6069477;23;20029;-80
2021/08/24 08:29:09;;;;;;;3.60;2.60;;;;;;;19.38;58.25;101090.31;6044440;23;20393;-80
2021/08/24 08:31:44;;;;;;;4.13;2.97;;;;;;;19.43;57.58;101094.44;6044706;23;20406;-80
2021/08/24 08:34:11;;;;;;;4.78;2.75;;;;;;;19.53;57.97;101092.78;6044643;23;20097;-80
2021/08/24 08:36:38;;;;;;;3.53;2.72;;;;;;;19.59;57.74;101096.84;6042486;23;20094;-80
2021/08/24 08:39:16;;;;;;;3.25;2.80;;;;;;;19.64;57.75;101097.34;6039545;23;20102;-80
2021/08/24 08:41:57;;;;;;;5.10;2.53;;;;;;;19.73;57.63;101098.50;6039190;23;20106;-80
2021/08/24 08:44:58;;;;;;;5.60;2.83;;;;;;;19.82;56.96;101103.16;6038691;23;20034;-80
2021/08/24 08:50:54;;;;;;;5.72;2.45;;;;;;;20.07;56.55;101113.84;6040649;23;20027;-80
2021/08/24 08:56:37;;;;;;;4.07;2.30;;;;;;;20.30;56.98;101109.41;6040829;23;20029;-80
2021/08/24 08:59:12;;;;;;;2.97;2.38;;;;;;;20.40;55.86;101110.38;6040948;23;20351;-80
2021/08/24 09:05:25;;;;;;;2.20;1.80;;;;;;;20.66;55.31;101112.84;6040539;23;20098;-80
2021/08/24 09:08:20;;;;;;;3.15;2.20;;;;;;;20.74;55.84;101111.41;6039495;23;20347;-80
2021/08/24 09:10:48;;;;;;;2.78;2.15;;;;;;;20.89;54.87;101109.38;6038965;23;20023;-80
2021/08/24 09:13:24;;;;;;;2.80;2.20;;;;;;;20.95;54.21;101115.09;6039491;23;20030;-80
2021/08/24 09:16:09;;;;;;;3.33;2.10;;;;;;;21.02;53.77;101119.94;6038914;23;20023;-80
2021/08/24 09:18:47;;;;;;;3.47;1.70;;;;;;;21.09;53.20;101122.00;6039813;23;20023;-80
2021/08/24 09:24:54;;;;;;;2.60;1.73;;;;;;;21.30;53.21;101109.72;5981492;24;20023;-80
2021/08/24 09:27:33;;;;;;;2.28;1.70;;;;;;;21.35;52.10;101104.81;5958676;24;20030;-80
2021/08/24 09:30:03;;;;;;;7.53;1.92;;;;;;;21.40;51.30;101107.97;5958505;24;20035;-80
2021/08/24 09:32:45;;;;;;;3.08;1.73;;;;;;;21.43;51.43;101105.06;5958697;24;20046;-80
2021/08/24 09:35:14;;;;;;;4.28;1.73;;;;;;;21.53;51.50;101102.44;5957985;24;20115;-80
2021/08/24 09:37:48;;;;;;;3.10;1.77;;;;;;;21.57;51.31;101108.41;5982064;24;20028;-80
2021/08/24 09:40:44;;;;;;;3.38;1.95;;;;;;;21.62;51.67;101100.84;6026613;23;20027;-80
2021/08/24 09:46:33;;;;;;;4.32;1.67;;;;;;;21.85;50.83;101100.78;6039882;23;20106;-80
2021/08/24 09:50:06;;;;;;;3.22;1.90;;;;;;;21.94;50.44;101104.53;6039089;23;20346;-80
2021/08/24 09:52:37;;;;;;;2.88;1.50;;;;;;;22.06;49.87;101103.50;6048677;23;20023;-80
2021/08/24 09:55:27;;;;;;;2.70;1.73;;;;;;;22.12;50.18;101107.47;6038720;23;20434;-80
2021/08/24 09:58:00;;;;;;;2.83;1.83;;;;;;;22.22;50.08;101103.03;6039133;23;20038;-80
2021/08/24 10:00:29;;;;;;;;;;;;;;;22.32;51.58;101103.09;6039124;23;20030;-80
2021/08/24 10:03:26;;;;;;;2.60;1.80;;;;;;;22.44;50.54;101100.34;6038729;23;19965;-80
2021/08/24 10:06:21;;;;;;;2.80;1.80;;;;;;;22.53;49.61;101104.91;6038548;23;20038;-80
2021/08/24 10:08:54;;;;;;;2.45;1.70;;;;;;;22.65;49.26;101103.00;6038912;23;20023;-80
2021/08/24 10:11:37;;;;;;;3.28;1.80;;;;;;;22.71;48.18;101102.50;5903877;24;20028;-80
2021/08/24 10:24:15;;;;;;;3.28;1.98;;;;;;;23.09;46.86;101105.47;5925476;24;20025;-80
2021/08/24 10:26:42;;;;;;;3.28;1.80;;;;;;;23.21;46.25;101097.31;5899936;24;20108;-80
2021/08/24 10:29:13;;;;;;;2.58;1.83;;;;;;;23.27;45.98;101110.16;5946874;23;20471;-80
2021/08/24 10:32:06;;;;;;;3.17;1.70;;;;;;;23.32;47.13;101101.72;6038480;23;20039;-80
2021/08/24 10:34:45;;;;;;;4.33;1.90;;;;;;;23.41;46.22;101096.34;6038721;23;20026;-80
2021/08/24 10:37:24;;;;;;;2.20;1.50;;;;;;;23.50;45.72;101091.13;6039065;23;20038;-80
2021/08/24 10:39:54;;;;;;;3.78;1.83;;;;;;;23.61;45.60;101084.78;6043153;23;20030;-80
2021/08/24 10:42:27;;;;;;;2.42;1.60;;;;;;;23.66;44.29;101090.59;6043586;23;20439;-81
2021/08/24 10:45:24;;;;;;;3.42;1.70;;;;;;;23.71;46.34;101088.34;6043346;23;20031;-81
2021/08/24 10:47:58;;;;;;;3.55;1.90;;;;;;;23.83;45.75;101086.34;6043386;23;20101;-80
2021/08/24 10:50:32;;;;;;;2.28;1.52;;;;;;;23.90;44.95;101079.41;6035120;23;20386;-81
2021/08/24 10:53:41;;;;;;;2.20;1.55;;;;;;;24.01;46.10;101081.09;5980921;24;20029;-80
2021/08/24 10:56:39;;;;;;;1.77;1.67;;;;;;;24.19;45.37;101092.00;5958741;24;20031;-80
2021/08/24 10:59:43;;;;;;;4.57;1.50;;;;;;;24.43;45.24;101087.13;5980975;24;20020;-80
2021/08/24 11:02:25;;;;;;;3.05;1.45;;;;;;;24.71;45.75;101093.41;5980807;24;20028;-81
2021/08/24 11:05:11;;;;;;;2.90;1.52;;;;;;;25.04;45.99;101079.53;5981047;24;20055;-80
2021/08/24 11:11:29;;;;;;;1.95;1.40;;;;;;;26.18;44.40;101075.53;6031404;23;20502;-86
2021/08/24 11:14:36;;;;;;;2.13;1.42;;;;;;;26.73;43.98;101077.06;6045099;23;20074;-85
2021/08/24 11:31:26;;;;;;;3.60;1.17;;;;;;;30.47;39.91;101064.19;6070226;23;20029;-85
2021/08/24 11:45:19;;;;;;;1.63;1.20;;;;;;;31.71;34.28;101033.56;5954613;24;20467;-86
2021/08/24 11:48:25;;;;;;;1.98;1.42;;;;;;;31.54;36.85;101050.16;5931621;24;20024;-85
2021/08/24 12:01:53;;;;;;;1.63;1.17;;;;;;;32.43;34.52;101040.75;6041324;23;20364;-86
2021/08/24 12:04:36;;;;;;;1.88;1.25;;;;;;;32.57;34.64;101042.53;6016547;23;20024;-81
2021/08/24 12:07:12;;;;;;;1.50;1.15;;;;;;;32.81;32.88;101044.94;6016348;23;20058;-81
2021/08/24 12:09:53;;;;;;;1.52;1.30;;;;;;;32.93;33.14;101042.44;6017052;23;20027;-81
2021/08/24 12:12:47;;;;;;;1.92;1.20;;;;;;;32.98;33.28;101048.13;6016248;23;20041;-81
2021/08/24 12:22:32;;;;;;;1.88;1.00;;;;;;;33.20;31.21;101039.81;6041333;23;20023;-86
2021/08/24 12:36:38;;;;;;;1.40;1.30;;;;;;;34.14;31.87;101025.31;5926721;24;20053;-86
2021/08/24 12:39:30;;;;;;;2.67;1.30;;;;;;;34.37;31.85;101030.31;5931392;23;20098;-87
2021/08/24 12:42:23;;;;;;;4.05;1.10;;;;;;;34.62;31.03;101026.03;6016012;23;20350;-87
2021/08/24 12:44:51;;;;;;;1.35;1.10;;;;;;;34.88;29.59;101027.78;6015772;23;20035;-87
2021/08/24 12:47:21;;;;;;;1.85;1.35;;;;;;;35.08;28.77;101024.06;6015621;23;20047;-87
2021/08/24 12:49:48;;;;;;;1.88;1.30;;;;;;;35.28;29.31;101025.88;6016031;23;20029;-87
2021/08/24 12:52:14;;;;;;;1.77;1.20;;;;;;;35.47;28.91;101013.91;6016080;23;20465;-87
2021/08/24 12:54:56;;;;;;;2.13;1.30;;;;;;;35.63;28.38;101017.16;6015704;23;20069;-87
2021/08/24 12:57:36;;;;;;;1.40;1.25;;;;;;;35.81;28.02;101008.19;6015975;23;20455;-87
2021/08/24 13:03:26;;;;;;;2.58;1.40;;;;;;;36.22;27.51;101014.06;6040615;23;20028;-87
2021/08/24 13:06:18;;;;;;;1.40;1.30;;;;;;;36.36;27.59;101019.41;5903570;24;20436;-87
2021/08/24 13:08:47;;;;;;;1.50;1.40;;;;;;;36.57;26.56;101011.72;5903691;24;20047;-87
2021/08/24 13:11:31;;;;;;;1.30;1.20;;;;;;;36.67;27.05;101005.72;5904229;24;20033;-87
2021/08/24 13:14:00;;;;;;;1.30;1.20;;;;;;;36.84;26.06;101005.91;5903597;24;20025;-87
2021/08/24 13:16:54;;;;;;;1.67;1.38;;;;;;;36.83;27.12;101012.47;5903412;24;20029;-81
2021/08/24 13:19:26;;;;;;;1.35;1.15;;;;;;;36.84;24.84;101020.47;5892923;24;20029;-81
2021/08/24 13:22:32;;;;;;;1.58;1.10;;;;;;;36.72;27.28;101016.84;5903133;24;20112;-84
2021/08/24 13:25:02;;;;;;;1.90;1.33;;;;;;;36.77;25.37;101012.34;6002227;23;20404;-84
2021/08/24 13:27:32;;;;;;;1.73;1.23;;;;;;;36.77;24.59;101001.34;6015814;23;20023;-84
2021/08/24 13:30:04;;;;;;;1.73;1.40;;;;;;;36.80;25.50;101007.47;6016104;23;20075;-80
2021/08/24 13:32:38;;;;;;;3.85;1.35;;;;;;;36.85;25.23;101005.66;6015397;23;20102;-80
2021/08/24 13:35:17;;;;;;;2.28;1.60;;;;;;;36.95;25.31;100996.88;6015505;23;20503;-80
2021/08/24 13:37:48;;;;;;;2.13;1.55;;;;;;;37.13;25.00;100990.47;6015802;23;20086;-80
2021/08/24 13:40:30;;;;;;;1.20;1.10;;;;;;;37.24;24.98;100997.09;6016669;23;20502;-80
2021/08/24 13:42:58;;;;;;;1.80;1.50;;;;;;;37.44;24.47;100993.16;6044091;23;20472;-80
2021/08/24 13:45:28;;;;;;;2.80;1.20;;;;;;;37.57;24.42;100991.25;6044027;23;20346;-80
2021/08/24 13:47:58;;;;;;;1.35;1.00;;;;;;;37.68;24.54;100984.97;6044120;23;20023;-81
2021/08/24 13:50:41;;;;;;;2.80;1.25;;;;;;;37.76;24.87;100994.75;6044555;23;20106;-81
2021/08/24 13:53:22;;;;;;;2.83;1.27;;;;;;;37.85;23.51;100986.97;6068904;23;20029;-81
2021/08/24 13:55:53;;;;;;;2.42;1.60;;;;;;;37.90;23.59;100979.66;6043585;23;20027;-81
2021/08/24 13:58:28;;;;;;;1.67;1.30;;;;;;;37.87;23.05;100984.81;6043456;23;20041;-80
2021/08/24 14:00:57;;;;;;;1.60;1.17;;;;;;;37.90;23.01;100985.16;6043470;23;20023;-80
2021/08/24 14:03:30;;;;;;;1.63;1.15;;;;;;;37.90;22.87;100985.16;6044457;23;20077;-80
2021/08/24 14:06:00;;;;;;;2.00;1.42;;;;;;;37.90;22.75;100976.91;6069691;23;20126;-80
2021/08/24 14:08:30;;;;;;;1.65;1.40;;;;;;;37.90;22.40;100976.09;6043609;23;20037;-80
2021/08/24 14:11:01;;;;;;;2.22;1.40;;;;;;;37.93;22.33;100981.94;6043947;23;20026;-80
2021/08/24 14:13:41;;;;;;;2.33;1.33;;;;;;;37.98;23.48;100985.88;6043480;23;20473;-80
2021/08/24 14:16:24;;;;;;;2.05;1.30;;;;;;;38.11;22.92;100990.31;6043930;23;20106;-80
2021/08/24 14:18:58;;;;;;;1.67;1.25;;;;;;;38.24;22.07;100992.78;6043989;23;20026;-81
2021/08/24 14:21:26;;;;;;;1.52;1.33;;;;;;;38.36;22.22;100975.38;6043587;23;20031;-81
2021/08/24 14:24:19;;;;;;;1.52;1.25;;;;;;;38.45;23.78;100984.91;6043097;23;20023;-81
2021/08/24 14:26:47;;;;;;;;;;;;;;;38.63;25.12;100986.66;6022863;23;20026;-81
2021/08/24 14:29:19;;;;;;;1.33;1.15;;;;;;;38.88;21.94;100992.88;6043403;23;19917;-81
2021/08/24 14:31:48;;;;;;;2.83;1.48;;;;;;;38.96;22.35;100993.31;6043682;23;20451;-80
2021/08/24 14:34:22;;;;;;;1.20;1.02;;;;;;;38.93;21.82;100991.06;6068605;23;20029;-80
2021/08/24 14:37:04;;;;;;;1.63;1.13;;;;;;;38.90;21.35;100987.97;6044334;23;20031;-80
2021/08/24 14:39:35;;;;;;;1.45;1.15;;;;;;;38.93;21.39;100991.06;6043719;23;20023;-80
2021/08/24 14:42:43;;;;;;;2.33;1.38;;;;;;;38.84;22.69;100987.84;6039678;23;20035;-80
2021/08/24 14:45:21;;;;;;;1.38;1.23;;;;;;;38.86;21.85;100990.38;6040418;23;20023;-80
2021/08/24 14:47:59;;;;;;;1.70;1.20;;;;;;;38.87;21.69;100991.22;6042232;23;20380;-80
2021/08/24 14:50:35;;;;;;;1.65;1.30;;;;;;;38.89;21.16;100983.53;6040458;23;20025;-80
2021/08/24 14:53:05;;;;;;;1.38;1.27;;;;;;;38.94;21.28;100980.88;6040124;23;20102;-80
2021/08/24 14:55:38;;;;;;;1.92;1.40;;;;;;;38.96;20.69;100978.72;6040581;23;20027;-80